sensor_id;sensor_type;location;lat;lon;timestamp;temperature;humidity
6443;DHT22;3254;47.372;8.512;2023-03-08T00:00:44;4.40;1.00
6443;DHT22;3254;47.372;8.512;2023-03-08T00:03:14;4.40;1.00
6443;DHT22;3254;47.372;8.512;2023-03-08T00:05:40;4.30;1.00
6443;DHT22;3254;47.372;8.512;2023-03-08T00:08:05;4.40;1.00
6443;DHT22;3254;47.372;8.512;2023-03-08T00:10:31;4.30;1.00
6443;DHT22;3254;47.372;8.512;2023-03-08T00:12:57;4.30;1.00
6443;DHT22;3254;47.372;8.512;2023-03-08T00:15:22;4.30;1.00
6443;DHT22;3254;47.372;8.512;2023-03-08T00:17:49;4.30;1.00
6443;DHT22;3254;47.372;8.512;2023-03-08T00:20:15;4.30;1.00
6443;DHT22;3254;47.372;8.512;2023-03-08T00:22:41;4.30;1.00
6443;DHT22;3254;47.372;8.512;2023-03-08T00:25:09;4.20;1.00
6443;DHT22;3254;47.372;8.512;2023-03-08T00:27:35;4.30;1.00
6443;DHT22;3254;47.372;8.512;2023-03-08T00:30:02;4.30;1.00
6443;DHT22;3254;47.372;8.512;2023-03-08T00:32:28;4.30;1.00
6443;DHT22;3254;47.372;8.512;2023-03-08T00:34:54;4.30;1.00
6443;DHT22;3254;47.372;8.512;2023-03-08T00:37:20;4.30;1.00
6443;DHT22;3254;47.372;8.512;2023-03-08T00:39:53;4.30;1.00
6443;DHT22;3254;47.372;8.512;2023-03-08T00:42:22;4.30;1.00
6443;DHT22;3254;47.372;8.512;2023-03-08T00:44:48;4.30;1.00
6443;DHT22;3254;47.372;8.512;2023-03-08T00:47:14;4.30;1.00
6443;DHT22;3254;47.372;8.512;2023-03-08T00:49:40;4.40;1.00
6443;DHT22;3254;47.372;8.512;2023-03-08T00:52:06;4.30;1.00
6443;DHT22;3254;47.372;8.512;2023-03-08T00:54:32;4.40;1.00
6443;DHT22;3254;47.372;8.512;2023-03-08T00:56:58;4.40;1.00
6443;DHT22;3254;47.372;8.512;2023-03-08T00:59:24;4.40;1.00
6443;DHT22;3254;47.372;8.512;2023-03-08T01:01:52;4.40;1.00
6443;DHT22;3254;47.372;8.512;2023-03-08T01:04:19;4.50;1.00
6443;DHT22;3254;47.372;8.512;2023-03-08T01:06:44;4.50;1.00
6443;DHT22;3254;47.372;8.512;2023-03-08T01:09:11;4.60;1.00
6443;DHT22;3254;47.372;8.512;2023-03-08T01:11:39;4.60;1.00
6443;DHT22;3254;47.372;8.512;2023-03-08T01:14:06;4.60;1.00
6443;DHT22;3254;47.372;8.512;2023-03-08T01:16:33;4.60;1.00
6443;DHT22;3254;47.372;8.512;2023-03-08T01:19:01;4.60;1.00
6443;DHT22;3254;47.372;8.512;2023-03-08T01:21:28;4.60;1.00
6443;DHT22;3254;47.372;8.512;2023-03-08T01:23:54;4.60;1.00
6443;DHT22;3254;47.372;8.512;2023-03-08T01:26:23;4.60;1.00
6443;DHT22;3254;47.372;8.512;2023-03-08T01:28:50;4.60;1.00
6443;DHT22;3254;47.372;8.512;2023-03-08T01:31:22;4.60;1.00
6443;DHT22;3254;47.372;8.512;2023-03-08T01:33:48;4.70;1.00
6443;DHT22;3254;47.372;8.512;2023-03-08T01:36:15;4.70;1.00
6443;DHT22;3254;47.372;8.512;2023-03-08T01:38:41;4.70;1.00
6443;DHT22;3254;47.372;8.512;2023-03-08T01:41:16;4.60;1.00
6443;DHT22;3254;47.372;8.512;2023-03-08T01:43:42;4.60;1.00
6443;DHT22;3254;47.372;8.512;2023-03-08T01:46:16;4.60;1.00
6443;DHT22;3254;47.372;8.512;2023-03-08T01:51:17;4.60;1.00
6443;DHT22;3254;47.372;8.512;2023-03-08T01:53:45;4.60;1.00
6443;DHT22;3254;47.372;8.512;2023-03-08T01:56:12;4.70;1.00
6443;DHT22;3254;47.372;8.512;2023-03-08T01:58:40;4.80;1.00
6443;DHT22;3254;47.372;8.512;2023-03-08T02:01:08;4.70;1.00
6443;DHT22;3254;47.372;8.512;2023-03-08T02:03:34;4.80;1.00
6443;DHT22;3254;47.372;8.512;2023-03-08T02:05:59;4.70;1.00
6443;DHT22;3254;47.372;8.512;2023-03-08T02:08:26;4.70;1.00
6443;DHT22;3254;47.372;8.512;2023-03-08T02:10:52;4.70;1.00
6443;DHT22;3254;47.372;8.512;2023-03-08T02:13:19;4.70;1.00
6443;DHT22;3254;47.372;8.512;2023-03-08T02:15:45;4.70;1.00
6443;DHT22;3254;47.372;8.512;2023-03-08T02:18:10;4.60;1.00
6443;DHT22;3254;47.372;8.512;2023-03-08T02:20:39;4.50;1.00
6443;DHT22;3254;47.372;8.512;2023-03-08T02:23:20;4.40;1.00
6443;DHT22;3254;47.372;8.512;2023-03-08T02:26:03;4.30;1.00
6443;DHT22;3254;47.372;8.512;2023-03-08T02:28:31;4.20;1.00
6443;DHT22;3254;47.372;8.512;2023-03-08T02:30:58;4.10;1.00
6443;DHT22;3254;47.372;8.512;2023-03-08T02:33:24;4.10;1.00
6443;DHT22;3254;47.372;8.512;2023-03-08T02:35:50;4.10;1.00
6443;DHT22;3254;47.372;8.512;2023-03-08T02:38:17;4.10;1.00
6443;DHT22;3254;47.372;8.512;2023-03-08T02:40:43;4.00;1.00
6443;DHT22;3254;47.372;8.512;2023-03-08T02:43:09;4.00;1.00
6443;DHT22;3254;47.372;8.512;2023-03-08T02:45:35;4.00;1.00
6443;DHT22;3254;47.372;8.512;2023-03-08T02:48:05;4.00;1.00
6443;DHT22;3254;47.372;8.512;2023-03-08T02:50:31;4.00;1.00
6443;DHT22;3254;47.372;8.512;2023-03-08T02:52:57;3.90;1.00
6443;DHT22;3254;47.372;8.512;2023-03-08T02:55:23;4.00;1.00
6443;DHT22;3254;47.372;8.512;2023-03-08T02:57:48;4.10;1.00
6443;DHT22;3254;47.372;8.512;2023-03-08T03:00:14;4.20;1.00
6443;DHT22;3254;47.372;8.512;2023-03-08T03:02:40;4.20;1.00
6443;DHT22;3254;47.372;8.512;2023-03-08T03:05:07;4.20;1.00
6443;DHT22;3254;47.372;8.512;2023-03-08T03:07:36;4.10;1.00
6443;DHT22;3254;47.372;8.512;2023-03-08T03:10:04;4.00;1.00
6443;DHT22;3254;47.372;8.512;2023-03-08T03:12:30;4.10;1.00
6443;DHT22;3254;47.372;8.512;2023-03-08T03:14:57;4.20;1.00
6443;DHT22;3254;47.372;8.512;2023-03-08T03:17:23;4.30;1.00
6443;DHT22;3254;47.372;8.512;2023-03-08T03:19:49;4.30;1.00
6443;DHT22;3254;47.372;8.512;2023-03-08T03:22:14;4.50;1.00
6443;DHT22;3254;47.372;8.512;2023-03-08T03:24:41;4.40;1.00
6443;DHT22;3254;47.372;8.512;2023-03-08T03:27:07;4.50;1.00
6443;DHT22;3254;47.372;8.512;2023-03-08T03:29:33;4.50;1.00
6443;DHT22;3254;47.372;8.512;2023-03-08T03:32:03;4.50;1.00
6443;DHT22;3254;47.372;8.512;2023-03-08T03:34:30;4.60;1.00
6443;DHT22;3254;47.372;8.512;2023-03-08T03:36:56;4.60;1.00
6443;DHT22;3254;47.372;8.512;2023-03-08T03:39:21;4.50;1.00
6443;DHT22;3254;47.372;8.512;2023-03-08T03:41:47;4.50;1.00
6443;DHT22;3254;47.372;8.512;2023-03-08T03:44:13;4.50;1.00
6443;DHT22;3254;47.372;8.512;2023-03-08T03:46:40;4.50;1.00
6443;DHT22;3254;47.372;8.512;2023-03-08T03:49:06;4.50;1.00
6443;DHT22;3254;47.372;8.512;2023-03-08T03:51:33;4.60;1.00
6443;DHT22;3254;47.372;8.512;2023-03-08T03:53:59;4.60;1.00
6443;DHT22;3254;47.372;8.512;2023-03-08T03:56:27;4.60;1.00
6443;DHT22;3254;47.372;8.512;2023-03-08T03:58:53;4.70;1.00
6443;DHT22;3254;47.372;8.512;2023-03-08T04:01:21;4.70;1.00
6443;DHT22;3254;47.372;8.512;2023-03-08T04:03:49;4.80;1.00
6443;DHT22;3254;47.372;8.512;2023-03-08T04:06:19;4.80;1.00
6443;DHT22;3254;47.372;8.512;2023-03-08T04:08:44;4.70;1.00
6443;DHT22;3254;47.372;8.512;2023-03-08T04:11:13;4.70;1.00
6443;DHT22;3254;47.372;8.512;2023-03-08T04:13:42;4.60;1.00
6443;DHT22;3254;47.372;8.512;2023-03-08T04:16:20;4.50;1.00
6443;DHT22;3254;47.372;8.512;2023-03-08T04:18:53;4.50;1.00
6443;DHT22;3254;47.372;8.512;2023-03-08T04:21:23;4.50;1.00
6443;DHT22;3254;47.372;8.512;2023-03-08T04:23:49;4.50;1.00
6443;DHT22;3254;47.372;8.512;2023-03-08T04:26:16;4.50;1.00
6443;DHT22;3254;47.372;8.512;2023-03-08T04:28:42;4.50;1.00
6443;DHT22;3254;47.372;8.512;2023-03-08T04:31:12;4.60;1.00
6443;DHT22;3254;47.372;8.512;2023-03-08T04:33:40;4.60;1.00
6443;DHT22;3254;47.372;8.512;2023-03-08T04:36:08;4.60;1.00
6443;DHT22;3254;47.372;8.512;2023-03-08T04:38:34;4.50;1.00
6443;DHT22;3254;47.372;8.512;2023-03-08T04:41:01;4.60;1.00
6443;DHT22;3254;47.372;8.512;2023-03-08T04:43:28;4.70;1.00
6443;DHT22;3254;47.372;8.512;2023-03-08T04:45:54;4.60;1.00
6443;DHT22;3254;47.372;8.512;2023-03-08T04:48:20;4.60;1.00
6443;DHT22;3254;47.372;8.512;2023-03-08T04:51:00;4.50;1.00
6443;DHT22;3254;47.372;8.512;2023-03-08T04:53:28;4.50;1.00
6443;DHT22;3254;47.372;8.512;2023-03-08T04:55:54;4.50;1.00
6443;DHT22;3254;47.372;8.512;2023-03-08T04:58:20;4.50;1.00
6443;DHT22;3254;47.372;8.512;2023-03-08T05:00:46;4.60;1.00
6443;DHT22;3254;47.372;8.512;2023-03-08T05:03:13;4.60;1.00
6443;DHT22;3254;47.372;8.512;2023-03-08T05:05:48;4.70;1.00
6443;DHT22;3254;47.372;8.512;2023-03-08T05:08:14;4.70;1.00
6443;DHT22;3254;47.372;8.512;2023-03-08T05:10:46;4.70;1.00
6443;DHT22;3254;47.372;8.512;2023-03-08T05:13:14;4.70;1.00
6443;DHT22;3254;47.372;8.512;2023-03-08T05:15:40;4.70;1.00
6443;DHT22;3254;47.372;8.512;2023-03-08T05:18:06;4.70;1.00
6443;DHT22;3254;47.372;8.512;2023-03-08T05:20:31;4.80;1.00
6443;DHT22;3254;47.372;8.512;2023-03-08T05:22:57;4.80;1.00
6443;DHT22;3254;47.372;8.512;2023-03-08T05:25:23;4.80;1.00
6443;DHT22;3254;47.372;8.512;2023-03-08T05:27:48;4.70;1.00
6443;DHT22;3254;47.372;8.512;2023-03-08T05:30:14;4.70;1.00
6443;DHT22;3254;47.372;8.512;2023-03-08T05:32:40;4.80;1.00
6443;DHT22;3254;47.372;8.512;2023-03-08T05:35:05;4.70;1.00
6443;DHT22;3254;47.372;8.512;2023-03-08T05:37:31;4.80;1.00
6443;DHT22;3254;47.372;8.512;2023-03-08T05:39:56;4.80;1.00
6443;DHT22;3254;47.372;8.512;2023-03-08T05:42:22;4.80;1.00
6443;DHT22;3254;47.372;8.512;2023-03-08T05:44:52;4.80;1.00
6443;DHT22;3254;47.372;8.512;2023-03-08T05:47:17;4.70;1.00
6443;DHT22;3254;47.372;8.512;2023-03-08T05:49:43;4.80;1.00
6443;DHT22;3254;47.372;8.512;2023-03-08T05:52:09;4.80;1.00
6443;DHT22;3254;47.372;8.512;2023-03-08T05:54:34;4.80;1.00
6443;DHT22;3254;47.372;8.512;2023-03-08T05:57:00;4.80;1.00
6443;DHT22;3254;47.372;8.512;2023-03-08T05:59:26;4.70;1.00
6443;DHT22;3254;47.372;8.512;2023-03-08T06:01:51;4.70;1.00
6443;DHT22;3254;47.372;8.512;2023-03-08T06:04:17;4.70;1.00
6443;DHT22;3254;47.372;8.512;2023-03-08T06:06:42;4.80;1.00
6443;DHT22;3254;47.372;8.512;2023-03-08T06:09:09;4.80;1.00
6443;DHT22;3254;47.372;8.512;2023-03-08T06:11:34;4.80;1.00
6443;DHT22;3254;47.372;8.512;2023-03-08T06:14:00;4.80;1.00
6443;DHT22;3254;47.372;8.512;2023-03-08T06:16:25;4.80;1.00
6443;DHT22;3254;47.372;8.512;2023-03-08T06:18:51;4.80;1.00
6443;DHT22;3254;47.372;8.512;2023-03-08T06:21:19;4.80;1.00
6443;DHT22;3254;47.372;8.512;2023-03-08T06:23:46;4.80;1.00
6443;DHT22;3254;47.372;8.512;2023-03-08T06:26:13;4.80;1.00
6443;DHT22;3254;47.372;8.512;2023-03-08T06:28:39;4.80;1.00
6443;DHT22;3254;47.372;8.512;2023-03-08T06:31:07;4.80;1.00
6443;DHT22;3254;47.372;8.512;2023-03-08T06:33:34;4.80;1.00
6443;DHT22;3254;47.372;8.512;2023-03-08T06:36:08;4.90;1.00
6443;DHT22;3254;47.372;8.512;2023-03-08T06:38:37;5.00;1.00
6443;DHT22;3254;47.372;8.512;2023-03-08T06:41:05;5.10;1.00
6443;DHT22;3254;47.372;8.512;2023-03-08T06:43:32;5.10;1.00
6443;DHT22;3254;47.372;8.512;2023-03-08T06:46:08;5.20;1.00
6443;DHT22;3254;47.372;8.512;2023-03-08T06:48:35;5.20;1.00
6443;DHT22;3254;47.372;8.512;2023-03-08T06:51:03;5.30;1.00
6443;DHT22;3254;47.372;8.512;2023-03-08T06:53:32;5.30;1.00
6443;DHT22;3254;47.372;8.512;2023-03-08T06:56:00;5.40;1.00
6443;DHT22;3254;47.372;8.512;2023-03-08T06:58:27;5.50;1.00
6443;DHT22;3254;47.372;8.512;2023-03-08T07:00:53;5.60;1.00
6443;DHT22;3254;47.372;8.512;2023-03-08T07:03:19;5.60;1.00
6443;DHT22;3254;47.372;8.512;2023-03-08T07:05:44;5.70;1.00
6443;DHT22;3254;47.372;8.512;2023-03-08T07:08:10;5.80;1.00
6443;DHT22;3254;47.372;8.512;2023-03-08T07:10:36;5.80;1.00
6443;DHT22;3254;47.372;8.512;2023-03-08T07:13:01;5.90;1.00
6443;DHT22;3254;47.372;8.512;2023-03-08T07:15:27;5.90;1.00
6443;DHT22;3254;47.372;8.512;2023-03-08T07:17:54;5.90;1.00
6443;DHT22;3254;47.372;8.512;2023-03-08T07:20:22;6.00;1.00
6443;DHT22;3254;47.372;8.512;2023-03-08T07:22:48;6.10;1.00
6443;DHT22;3254;47.372;8.512;2023-03-08T07:25:16;6.20;1.00
6443;DHT22;3254;47.372;8.512;2023-03-08T07:27:42;6.20;1.00
6443;DHT22;3254;47.372;8.512;2023-03-08T07:30:09;6.30;1.00
6443;DHT22;3254;47.372;8.512;2023-03-08T07:32:35;6.20;1.00
6443;DHT22;3254;47.372;8.512;2023-03-08T07:35:02;6.10;1.00
6443;DHT22;3254;47.372;8.512;2023-03-08T07:37:28;6.20;1.00
6443;DHT22;3254;47.372;8.512;2023-03-08T07:39:53;6.40;1.00
6443;DHT22;3254;47.372;8.512;2023-03-08T07:42:19;6.50;1.00
6443;DHT22;3254;47.372;8.512;2023-03-08T07:44:44;6.40;1.00
6443;DHT22;3254;47.372;8.512;2023-03-08T07:47:12;6.50;1.00
6443;DHT22;3254;47.372;8.512;2023-03-08T07:49:38;6.50;1.00
6443;DHT22;3254;47.372;8.512;2023-03-08T07:52:04;6.40;1.00
6443;DHT22;3254;47.372;8.512;2023-03-08T07:54:30;6.30;1.00
6443;DHT22;3254;47.372;8.512;2023-03-08T07:56:55;6.20;1.00
6443;DHT22;3254;47.372;8.512;2023-03-08T07:59:22;6.10;1.00
6443;DHT22;3254;47.372;8.512;2023-03-08T08:01:47;6.20;1.00
6443;DHT22;3254;47.372;8.512;2023-03-08T08:04:14;6.40;1.00
6443;DHT22;3254;47.372;8.512;2023-03-08T08:06:40;6.60;1.00
6443;DHT22;3254;47.372;8.512;2023-03-08T08:09:07;6.60;1.00
6443;DHT22;3254;47.372;8.512;2023-03-08T08:11:33;6.60;1.00
6443;DHT22;3254;47.372;8.512;2023-03-08T08:14:00;6.60;1.00
6443;DHT22;3254;47.372;8.512;2023-03-08T08:16:26;6.50;1.00
6443;DHT22;3254;47.372;8.512;2023-03-08T08:18:52;6.40;1.00
6443;DHT22;3254;47.372;8.512;2023-03-08T08:21:19;6.50;1.00
6443;DHT22;3254;47.372;8.512;2023-03-08T08:23:45;6.50;1.00
6443;DHT22;3254;47.372;8.512;2023-03-08T08:26:17;6.40;1.00
6443;DHT22;3254;47.372;8.512;2023-03-08T08:28:44;6.50;1.00
6443;DHT22;3254;47.372;8.512;2023-03-08T08:31:14;6.60;1.00
6443;DHT22;3254;47.372;8.512;2023-03-08T08:33:40;6.60;1.00
6443;DHT22;3254;47.372;8.512;2023-03-08T08:36:07;6.80;1.00
6443;DHT22;3254;47.372;8.512;2023-03-08T08:38:34;6.80;1.00
6443;DHT22;3254;47.372;8.512;2023-03-08T08:41:01;6.90;1.00
6443;DHT22;3254;47.372;8.512;2023-03-08T08:43:28;6.90;1.00
6443;DHT22;3254;47.372;8.512;2023-03-08T08:45:56;6.90;1.00
6443;DHT22;3254;47.372;8.512;2023-03-08T08:48:22;7.00;1.00
6443;DHT22;3254;47.372;8.512;2023-03-08T08:50:49;6.90;1.00
6443;DHT22;3254;47.372;8.512;2023-03-08T08:53:15;6.80;1.00
6443;DHT22;3254;47.372;8.512;2023-03-08T08:55:40;6.70;1.00
6443;DHT22;3254;47.372;8.512;2023-03-08T08:58:09;6.50;1.00
6443;DHT22;3254;47.372;8.512;2023-03-08T09:00:35;6.40;1.00
6443;DHT22;3254;47.372;8.512;2023-03-08T09:03:03;6.50;1.00
6443;DHT22;3254;47.372;8.512;2023-03-08T09:05:29;6.30;1.00
6443;DHT22;3254;47.372;8.512;2023-03-08T09:07:56;6.20;1.00
6443;DHT22;3254;47.372;8.512;2023-03-08T09:10:23;6.20;1.00
6443;DHT22;3254;47.372;8.512;2023-03-08T09:12:49;6.30;1.00
6443;DHT22;3254;47.372;8.512;2023-03-08T09:15:15;6.40;1.00
6443;DHT22;3254;47.372;8.512;2023-03-08T09:17:41;6.40;1.00
6443;DHT22;3254;47.372;8.512;2023-03-08T09:20:08;6.40;1.00
6443;DHT22;3254;47.372;8.512;2023-03-08T09:22:35;6.40;1.00
6443;DHT22;3254;47.372;8.512;2023-03-08T09:25:01;6.50;1.00
6443;DHT22;3254;47.372;8.512;2023-03-08T09:27:26;6.60;1.00
6443;DHT22;3254;47.372;8.512;2023-03-08T09:29:52;6.60;1.00
6443;DHT22;3254;47.372;8.512;2023-03-08T09:32:17;6.50;1.00
6443;DHT22;3254;47.372;8.512;2023-03-08T09:34:43;6.50;1.00
6443;DHT22;3254;47.372;8.512;2023-03-08T09:37:11;6.50;1.00
6443;DHT22;3254;47.372;8.512;2023-03-08T09:39:36;6.30;1.00
6443;DHT22;3254;47.372;8.512;2023-03-08T09:42:06;6.10;1.00
6443;DHT22;3254;47.372;8.512;2023-03-08T09:47:37;6.10;1.00
6443;DHT22;3254;47.372;8.512;2023-03-08T09:50:16;6.10;1.00
6443;DHT22;3254;47.372;8.512;2023-03-08T09:56:10;6.10;1.00
6443;DHT22;3254;47.372;8.512;2023-03-08T10:09:35;6.00;1.00
6443;DHT22;3254;47.372;8.512;2023-03-08T10:14:49;6.10;1.00
6443;DHT22;3254;47.372;8.512;2023-03-08T10:17:21;6.30;1.00
6443;DHT22;3254;47.372;8.512;2023-03-08T10:19:56;6.20;1.00
6443;DHT22;3254;47.372;8.512;2023-03-08T10:22:29;6.10;1.00
6443;DHT22;3254;47.372;8.512;2023-03-08T10:25:19;5.90;1.00
6443;DHT22;3254;47.372;8.512;2023-03-08T10:27:47;5.80;1.00
6443;DHT22;3254;47.372;8.512;2023-03-08T10:30:17;5.90;1.00
6443;DHT22;3254;47.372;8.512;2023-03-08T10:32:48;5.90;1.00
6443;DHT22;3254;47.372;8.512;2023-03-08T10:35:15;5.70;1.00
6443;DHT22;3254;47.372;8.512;2023-03-08T10:37:50;5.40;11.00
6443;DHT22;3254;47.372;8.512;2023-03-08T10:40:20;5.60;5.70
6443;DHT22;3254;47.372;8.512;2023-03-08T10:43:02;5.70;5.50
6443;DHT22;3254;47.372;8.512;2023-03-08T10:45:30;5.80;1.00
6443;DHT22;3254;47.372;8.512;2023-03-08T10:48:05;6.10;3.10
6443;DHT22;3254;47.372;8.512;2023-03-08T10:50:36;6.40;1.70
6443;DHT22;3254;47.372;8.512;2023-03-08T10:53:15;6.50;1.00
6443;DHT22;3254;47.372;8.512;2023-03-08T10:55:49;6.60;1.00
6443;DHT22;3254;47.372;8.512;2023-03-08T10:58:36;6.30;1.80
6443;DHT22;3254;47.372;8.512;2023-03-08T11:01:05;6.30;1.00
6443;DHT22;3254;47.372;8.512;2023-03-08T11:03:31;6.60;1.00
6443;DHT22;3254;47.372;8.512;2023-03-08T11:05:59;6.90;2.30
6443;DHT22;3254;47.372;8.512;2023-03-08T11:08:31;7.20;1.00
6443;DHT22;3254;47.372;8.512;2023-03-08T11:11:01;7.40;1.00
6443;DHT22;3254;47.372;8.512;2023-03-08T11:13:38;7.50;1.00
6443;DHT22;3254;47.372;8.512;2023-03-08T11:21:12;7.60;1.00
6443;DHT22;3254;47.372;8.512;2023-03-08T11:23:47;7.70;1.00
6443;DHT22;3254;47.372;8.512;2023-03-08T11:26:38;7.70;1.00
6443;DHT22;3254;47.372;8.512;2023-03-08T11:29:33;7.80;1.00
6443;DHT22;3254;47.372;8.512;2023-03-08T11:32:19;7.90;1.00
6443;DHT22;3254;47.372;8.512;2023-03-08T11:37:48;8.40;1.00
6443;DHT22;3254;47.372;8.512;2023-03-08T11:46:14;9.30;1.00
6443;DHT22;3254;47.372;8.512;2023-03-08T11:48:48;9.40;1.00
6443;DHT22;3254;47.372;8.512;2023-03-08T11:51:35;9.40;1.00
6443;DHT22;3254;47.372;8.512;2023-03-08T11:56:57;9.50;1.00
6443;DHT22;3254;47.372;8.512;2023-03-08T12:02:43;9.90;1.00
6443;DHT22;3254;47.372;8.512;2023-03-08T12:05:28;9.90;1.00
6443;DHT22;3254;47.372;8.512;2023-03-08T12:08:11;10.00;1.00
6443;DHT22;3254;47.372;8.512;2023-03-08T12:10:57;10.30;1.00
6443;DHT22;3254;47.372;8.512;2023-03-08T12:13:45;10.50;1.00
6443;DHT22;3254;47.372;8.512;2023-03-08T12:16:39;10.30;1.00
6443;DHT22;3254;47.372;8.512;2023-03-08T12:19:33;10.50;1.00
6443;DHT22;3254;47.372;8.512;2023-03-08T12:22:17;10.60;1.00
6443;DHT22;3254;47.372;8.512;2023-03-08T12:25:06;10.60;1.00
6443;DHT22;3254;47.372;8.512;2023-03-08T12:27:46;10.80;1.00
6443;DHT22;3254;47.372;8.512;2023-03-08T12:33:01;10.90;1.00
6443;DHT22;3254;47.372;8.512;2023-03-08T12:35:35;11.10;1.00
6443;DHT22;3254;47.372;8.512;2023-03-08T12:38:23;11.70;1.00
6443;DHT22;3254;47.372;8.512;2023-03-08T12:40:53;11.90;1.00
6443;DHT22;3254;47.372;8.512;2023-03-08T12:43:29;12.00;1.00
6443;DHT22;3254;47.372;8.512;2023-03-08T12:48:28;11.90;1.00
6443;DHT22;3254;47.372;8.512;2023-03-08T12:51:19;11.70;1.00
6443;DHT22;3254;47.372;8.512;2023-03-08T12:56:37;12.00;1.00
6443;DHT22;3254;47.372;8.512;2023-03-08T13:01:43;11.60;1.00
6443;DHT22;3254;47.372;8.512;2023-03-08T13:04:29;11.80;1.00
6443;DHT22;3254;47.372;8.512;2023-03-08T13:09:42;11.50;1.00
6443;DHT22;3254;47.372;8.512;2023-03-08T13:15:16;11.90;1.00
6443;DHT22;3254;47.372;8.512;2023-03-08T13:18:12;12.10;1.00
6443;DHT22;3254;47.372;8.512;2023-03-08T13:20:57;12.50;1.00
6443;DHT22;3254;47.372;8.512;2023-03-08T13:23:49;13.10;1.00
6443;DHT22;3254;47.372;8.512;2023-03-08T13:29:20;13.20;1.00
6443;DHT22;3254;47.372;8.512;2023-03-08T13:31:47;12.80;1.00
6443;DHT22;3254;47.372;8.512;2023-03-08T13:34:31;12.70;1.00
6443;DHT22;3254;47.372;8.512;2023-03-08T13:36:57;12.90;1.00
6443;DHT22;3254;47.372;8.512;2023-03-08T13:39:25;13.20;1.00
6443;DHT22;3254;47.372;8.512;2023-03-08T13:42:09;13.30;1.00
6443;DHT22;3254;47.372;8.512;2023-03-08T13:44:37;13.20;1.00
6443;DHT22;3254;47.372;8.512;2023-03-08T13:47:14;13.20;1.00
6443;DHT22;3254;47.372;8.512;2023-03-08T13:49:42;13.00;1.00
6443;DHT22;3254;47.372;8.512;2023-03-08T13:52:23;12.80;1.00
6443;DHT22;3254;47.372;8.512;2023-03-08T13:54:57;12.60;1.00
6443;DHT22;3254;47.372;8.512;2023-03-08T13:57:31;12.80;1.00
6443;DHT22;3254;47.372;8.512;2023-03-08T14:00:23;12.70;1.00
6443;DHT22;3254;47.372;8.512;2023-03-08T14:02:49;12.70;1.00
6443;DHT22;3254;47.372;8.512;2023-03-08T14:05:24;12.90;1.00
6443;DHT22;3254;47.372;8.512;2023-03-08T14:08:14;13.20;1.00
6443;DHT22;3254;47.372;8.512;2023-03-08T14:13:26;13.30;1.00
6443;DHT22;3254;47.372;8.512;2023-03-08T14:15:58;13.20;1.00
6443;DHT22;3254;47.372;8.512;2023-03-08T14:18:38;12.60;1.00
6443;DHT22;3254;47.372;8.512;2023-03-08T14:21:12;12.70;1.00
6443;DHT22;3254;47.372;8.512;2023-03-08T14:23:41;12.70;1.00
6443;DHT22;3254;47.372;8.512;2023-03-08T14:26:26;12.40;1.00
6443;DHT22;3254;47.372;8.512;2023-03-08T14:29:12;12.40;1.00
6443;DHT22;3254;47.372;8.512;2023-03-08T14:32:04;12.40;1.00
6443;DHT22;3254;47.372;8.512;2023-03-08T14:34:38;12.50;1.00
6443;DHT22;3254;47.372;8.512;2023-03-08T14:39:43;12.30;1.00
6443;DHT22;3254;47.372;8.512;2023-03-08T14:42:33;12.50;1.00
6443;DHT22;3254;47.372;8.512;2023-03-08T14:47:58;12.50;1.00
6443;DHT22;3254;47.372;8.512;2023-03-08T14:50:30;12.40;1.00
6443;DHT22;3254;47.372;8.512;2023-03-08T14:52:58;12.40;1.00
6443;DHT22;3254;47.372;8.512;2023-03-08T14:55:26;12.50;1.00
6443;DHT22;3254;47.372;8.512;2023-03-08T14:58:07;12.20;1.00
6443;DHT22;3254;47.372;8.512;2023-03-08T15:00:46;11.90;1.00
6443;DHT22;3254;47.372;8.512;2023-03-08T15:03:17;11.70;1.00
6443;DHT22;3254;47.372;8.512;2023-03-08T15:05:45;11.50;1.00
6443;DHT22;3254;47.372;8.512;2023-03-08T15:08:13;11.30;1.00
6443;DHT22;3254;47.372;8.512;2023-03-08T15:10:41;11.00;1.00
6443;DHT22;3254;47.372;8.512;2023-03-08T15:13:21;10.70;1.00
6443;DHT22;3254;47.372;8.512;2023-03-08T15:15:49;10.50;1.00
6443;DHT22;3254;47.372;8.512;2023-03-08T15:18:16;10.00;1.00
6443;DHT22;3254;47.372;8.512;2023-03-08T15:20:46;9.70;1.00
6443;DHT22;3254;47.372;8.512;2023-03-08T15:26:06;9.60;1.00
6443;DHT22;3254;47.372;8.512;2023-03-08T15:28:32;9.60;1.00
6443;DHT22;3254;47.372;8.512;2023-03-08T15:30:58;9.50;1.00
6443;DHT22;3254;47.372;8.512;2023-03-08T15:33:25;9.50;1.00
6443;DHT22;3254;47.372;8.512;2023-03-08T15:35:52;9.50;1.00
6443;DHT22;3254;47.372;8.512;2023-03-08T15:38:19;9.50;1.00
6443;DHT22;3254;47.372;8.512;2023-03-08T15:40:46;9.50;1.00
6443;DHT22;3254;47.372;8.512;2023-03-08T15:43:12;9.50;1.00
6443;DHT22;3254;47.372;8.512;2023-03-08T15:45:37;9.50;1.00
6443;DHT22;3254;47.372;8.512;2023-03-08T15:48:10;9.50;1.00
6443;DHT22;3254;47.372;8.512;2023-03-08T15:50:36;9.40;1.00
6443;DHT22;3254;47.372;8.512;2023-03-08T15:53:04;9.30;1.00
6443;DHT22;3254;47.372;8.512;2023-03-08T15:55:30;9.40;1.00
6443;DHT22;3254;47.372;8.512;2023-03-08T15:57:56;9.30;1.00
6443;DHT22;3254;47.372;8.512;2023-03-08T16:00:22;9.20;1.00
6443;DHT22;3254;47.372;8.512;2023-03-08T16:02:50;9.00;1.00
6443;DHT22;3254;47.372;8.512;2023-03-08T16:05:18;8.70;3.20
6443;DHT22;3254;47.372;8.512;2023-03-08T16:07:54;8.50;34.70
6443;DHT22;3254;47.372;8.512;2023-03-08T16:10:20;8.40;56.10
6443;DHT22;3254;47.372;8.512;2023-03-08T16:12:47;8.30;80.50
6443;DHT22;3254;47.372;8.512;2023-03-08T16:15:14;8.20;99.90
6443;DHT22;3254;47.372;8.512;2023-03-08T16:17:39;8.20;99.90
6443;DHT22;3254;47.372;8.512;2023-03-08T16:20:05;8.10;99.90
6443;DHT22;3254;47.372;8.512;2023-03-08T16:22:32;8.10;99.90
6443;DHT22;3254;47.372;8.512;2023-03-08T16:24:58;8.10;99.90
6443;DHT22;3254;47.372;8.512;2023-03-08T16:27:31;8.10;99.90
6443;DHT22;3254;47.372;8.512;2023-03-08T16:30:02;8.00;99.90
6443;DHT22;3254;47.372;8.512;2023-03-08T16:32:28;8.00;99.90
6443;DHT22;3254;47.372;8.512;2023-03-08T16:34:58;8.00;99.90
6443;DHT22;3254;47.372;8.512;2023-03-08T16:37:25;8.00;99.90
6443;DHT22;3254;47.372;8.512;2023-03-08T16:39:54;7.90;99.90
6443;DHT22;3254;47.372;8.512;2023-03-08T16:42:23;7.90;99.90
6443;DHT22;3254;47.372;8.512;2023-03-08T16:44:51;7.90;99.90
6443;DHT22;3254;47.372;8.512;2023-03-08T16:47:18;7.90;99.90
6443;DHT22;3254;47.372;8.512;2023-03-08T16:49:44;7.90;99.90
6443;DHT22;3254;47.372;8.512;2023-03-08T16:52:12;7.90;99.90
6443;DHT22;3254;47.372;8.512;2023-03-08T16:54:38;7.90;99.90
6443;DHT22;3254;47.372;8.512;2023-03-08T16:57:04;7.80;99.90
6443;DHT22;3254;47.372;8.512;2023-03-08T16:59:30;7.80;99.90
6443;DHT22;3254;47.372;8.512;2023-03-08T17:01:57;7.80;99.90
6443;DHT22;3254;47.372;8.512;2023-03-08T17:04:23;7.80;99.90
6443;DHT22;3254;47.372;8.512;2023-03-08T17:06:49;7.80;99.90
6443;DHT22;3254;47.372;8.512;2023-03-08T17:09:15;7.90;99.90
6443;DHT22;3254;47.372;8.512;2023-03-08T17:11:41;7.90;99.90
6443;DHT22;3254;47.372;8.512;2023-03-08T17:14:09;7.90;99.90
6443;DHT22;3254;47.372;8.512;2023-03-08T17:16:35;7.90;99.90
6443;DHT22;3254;47.372;8.512;2023-03-08T17:19:03;8.00;99.90
6443;DHT22;3254;47.372;8.512;2023-03-08T17:21:30;8.00;99.90
6443;DHT22;3254;47.372;8.512;2023-03-08T17:23:57;8.00;99.90
6443;DHT22;3254;47.372;8.512;2023-03-08T17:26:23;8.00;99.90
6443;DHT22;3254;47.372;8.512;2023-03-08T17:28:51;8.00;99.90
6443;DHT22;3254;47.372;8.512;2023-03-08T17:31:19;8.10;99.90
6443;DHT22;3254;47.372;8.512;2023-03-08T17:33:46;8.10;99.90
6443;DHT22;3254;47.372;8.512;2023-03-08T17:36:12;8.10;99.90
6443;DHT22;3254;47.372;8.512;2023-03-08T17:38:38;8.10;99.90
6443;DHT22;3254;47.372;8.512;2023-03-08T17:41:06;8.10;99.90
6443;DHT22;3254;47.372;8.512;2023-03-08T17:43:33;8.10;99.90
6443;DHT22;3254;47.372;8.512;2023-03-08T17:46:07;8.10;99.90
6443;DHT22;3254;47.372;8.512;2023-03-08T17:48:34;8.10;99.90
6443;DHT22;3254;47.372;8.512;2023-03-08T17:51:04;8.20;99.90
6443;DHT22;3254;47.372;8.512;2023-03-08T17:53:30;8.20;99.90
6443;DHT22;3254;47.372;8.512;2023-03-08T17:55:56;8.20;99.90